General Aviation Weather

Text Reports

Enter one or more of the following location identifiers separated by a space:

Zip Code, Four-Character ICAO or Three-Character IATA airport codes.

METAR - Aviation Routine Weather Report
KPUC - Price, Utah
Updated at 7:53 AM GMT on February 01, 2015 (12:53 AM MST):
METAR KPUC 010753Z AUTO 32010KT 10SM CLR 02/M08 A3006 RMK AO2 SLP186 T00221083
TAF - Terminal Area Forecast
KPUC - Price, Utah
Updated at 7:53 AM GMT on February 01, 2015 (12:53 AM MST):
No TAF is currently available for this location.
Decoded:
No decoded TAF is available.
PIREP - Pilot Weather Report
KPUC - Price, Utah
Updated at 7:53 AM GMT on February 01, 2015 (12:53 AM MST):
No PIREP is currently available for this location.
AIRMET - Airmens Meteorological Information
KPUC - Price, Utah
Updated at 7:53 AM GMT on February 01, 2015 (12:53 AM MST):
No AIRMET is currently available for this location.
SIGMET - Significant Meteorological Information
KPUC - Price, Utah
Updated at 7:53 AM GMT on February 01, 2015 (12:53 AM MST):
No SIGMET is currently available for this location.
NOTAM - Notice to Airmen
KPUC - Price, Utah
Updated at 7:53 AM GMT on February 01, 2015 (12:53 AM MST):
No NOTAM is currently available for this location.
Forecast Area
KPUC - Price, Utah
Updated at 7:53 AM GMT on February 01, 2015 (12:53 AM MST):
No NOTAM is currently available for this location.
Aviation Weather Maps